Terminal Aerodrome Forecast
Issued by NWS

Home | Current Version | Previous Version | Text Only | Print | Product List | Glossary Off
Versions: 1 2 3 4 5 6 7 8 9 10 11 12 13 14 15 16

331
FTUS43 KBIS 291002 AAB
TAFJMS
TAF AMD
KJMS 291002Z 2910/3006 34008KT P6SM BKN003
      TEMPO 2910/2914 3SM BR OVC002
     FM291400 36011KT P6SM SCT004
     FM291800 36014KT P6SM SCT030
     FM300100 01007KT P6SM FEW250=

USA.gov is the U.S. government's official web portal to all federal, state and local government web resources and services.